<?xml version="1.0" encoding="UTF-8" standalone="no" ?>
<gpx xmlns="http://www.topografix.com/GPX/1/1" xmlns:xsi="http://www.w3.org/2001/XMLSchema-instance" xsi:schemaLocation="http://www.topografix.com/GPX/1/1 http://www.topografix.com/GPX/1/1/gpx.xsd" version="1.1" creator="VisuGPX - https://www.visugpx.com">
  <metadata>
    <name>1 Claveisolles</name>
  </metadata>
  <trk>
    <name><![CDATA[1 Claveisolles]]></name>
    <extensions>
      <line xmlns="http://www.topografix.com/GPX/gpx_style/0/2">
        <color>0000FF</color>
        <width>4</width>
      </line>
    </extensions>
    <trkseg>
      <trkpt lat="46.10085" lon="4.49479">
        <ele>457</ele>
        <time>2020-05-21T11:22:35+02:00</time>
      </trkpt>
      <trkpt lat="46.10103" lon="4.49536">
        <ele>455</ele>
        <time>2021-05-22T08:55:22+02:00</time>
      </trkpt>
      <trkpt lat="46.10108" lon="4.49573">
        <ele>455</ele>
        <time>2020-05-21T11:28:40+02:00</time>
      </trkpt>
      <trkpt lat="46.1011" lon="4.49589">
        <ele>455</ele>
        <time>2020-05-21T11:28:43+02:00</time>
      </trkpt>
      <trkpt lat="46.1011" lon="4.49602">
        <ele>456</ele>
        <time>2020-05-21T11:28:55+02:00</time>
      </trkpt>
      <trkpt lat="46.10114" lon="4.49615">
        <ele>457</ele>
        <time>2020-05-21T11:29:06+02:00</time>
      </trkpt>
      <trkpt lat="46.10118" lon="4.49626">
        <ele>459</ele>
        <time>2020-05-21T11:29:28+02:00</time>
      </trkpt>
      <trkpt lat="46.10118" lon="4.4964">
        <ele>460</ele>
        <time>2020-05-21T11:29:39+02:00</time>
      </trkpt>
      <trkpt lat="46.10115" lon="4.49653">
        <ele>460</ele>
        <time>2020-05-21T11:29:49+02:00</time>
      </trkpt>
      <trkpt lat="46.10116" lon="4.49667">
        <ele>461</ele>
        <time>2020-05-21T11:29:58+02:00</time>
      </trkpt>
      <trkpt lat="46.10114" lon="4.49679">
        <ele>462</ele>
        <time>2020-05-21T11:30:06+02:00</time>
      </trkpt>
      <trkpt lat="46.10111" lon="4.49692">
        <ele>462</ele>
        <time>2020-05-21T11:30:14+02:00</time>
      </trkpt>
      <trkpt lat="46.10113" lon="4.49706">
        <ele>463</ele>
        <time>2020-05-21T11:30:23+02:00</time>
      </trkpt>
      <trkpt lat="46.10115" lon="4.49719">
        <ele>464</ele>
        <time>2020-05-21T11:30:33+02:00</time>
      </trkpt>
      <trkpt lat="46.10122" lon="4.49729">
        <ele>466</ele>
        <time>2020-05-21T11:30:42+02:00</time>
      </trkpt>
      <trkpt lat="46.10128" lon="4.4974">
        <ele>467</ele>
        <time>2020-05-21T11:30:53+02:00</time>
      </trkpt>
      <trkpt lat="46.10135" lon="4.49749">
        <ele>469</ele>
        <time>2020-05-21T11:31:03+02:00</time>
      </trkpt>
      <trkpt lat="46.10141" lon="4.4976">
        <ele>470</ele>
        <time>2020-05-21T11:31:13+02:00</time>
      </trkpt>
      <trkpt lat="46.10149" lon="4.4977">
        <ele>471</ele>
        <time>2020-05-21T11:31:22+02:00</time>
      </trkpt>
      <trkpt lat="46.10157" lon="4.49776">
        <ele>471</ele>
        <time>2020-05-21T11:31:32+02:00</time>
      </trkpt>
      <trkpt lat="46.10163" lon="4.49786">
        <ele>471</ele>
        <time>2020-05-21T11:31:42+02:00</time>
      </trkpt>
      <trkpt lat="46.10169" lon="4.49797">
        <ele>470</ele>
        <time>2020-05-21T11:31:52+02:00</time>
      </trkpt>
      <trkpt lat="46.10177" lon="4.49791">
        <ele>472</ele>
        <time>2020-05-21T11:32:04+02:00</time>
      </trkpt>
      <trkpt lat="46.10175" lon="4.49778">
        <ele>472</ele>
        <time>2020-05-21T11:32:14+02:00</time>
      </trkpt>
      <trkpt lat="46.10169" lon="4.49767">
        <ele>472</ele>
        <time>2020-05-21T11:32:22+02:00</time>
      </trkpt>
      <trkpt lat="46.10166" lon="4.49755">
        <ele>473</ele>
        <time>2020-05-21T11:32:30+02:00</time>
      </trkpt>
      <trkpt lat="46.10161" lon="4.49699">
        <ele>471</ele>
        <time>2021-05-22T08:57:27+02:00</time>
      </trkpt>
      <trkpt lat="46.10199" lon="4.49689">
        <ele>476</ele>
        <time>2021-05-22T08:57:32+02:00</time>
      </trkpt>
      <trkpt lat="46.10237" lon="4.49682">
        <ele>481</ele>
        <time>2021-05-22T08:57:37+02:00</time>
      </trkpt>
      <trkpt lat="46.10332" lon="4.49721">
        <ele>495</ele>
        <time>2020-05-21T11:41:32+02:00</time>
      </trkpt>
      <trkpt lat="46.10432" lon="4.49762">
        <ele>499</ele>
        <time>2020-05-21T11:41:33+02:00</time>
      </trkpt>
      <trkpt lat="46.10403" lon="4.49747">
        <ele>499</ele>
        <time>2020-05-21T11:41:35+02:00</time>
      </trkpt>
      <trkpt lat="46.10458" lon="4.49776">
        <ele>498</ele>
        <time>2020-05-21T11:41:48+02:00</time>
      </trkpt>
      <trkpt lat="46.10467" lon="4.49781">
        <ele>498</ele>
        <time>2020-05-21T11:42:21+02:00</time>
      </trkpt>
      <trkpt lat="46.10474" lon="4.4979">
        <ele>499</ele>
        <time>2020-05-21T11:42:32+02:00</time>
      </trkpt>
      <trkpt lat="46.10479" lon="4.49801">
        <ele>500</ele>
        <time>2020-05-21T11:42:43+02:00</time>
      </trkpt>
      <trkpt lat="46.10485" lon="4.49812">
        <ele>501</ele>
        <time>2020-05-21T11:42:53+02:00</time>
      </trkpt>
      <trkpt lat="46.10489" lon="4.49824">
        <ele>502</ele>
        <time>2020-05-21T11:43:02+02:00</time>
      </trkpt>
      <trkpt lat="46.10492" lon="4.49837">
        <ele>503</ele>
        <time>2020-05-21T11:43:12+02:00</time>
      </trkpt>
      <trkpt lat="46.10495" lon="4.4985">
        <ele>504</ele>
        <time>2020-05-21T11:43:23+02:00</time>
      </trkpt>
      <trkpt lat="46.10498" lon="4.49862">
        <ele>505</ele>
        <time>2020-05-21T11:43:35+02:00</time>
      </trkpt>
      <trkpt lat="46.10501" lon="4.49875">
        <ele>505</ele>
        <time>2020-05-21T11:43:47+02:00</time>
      </trkpt>
      <trkpt lat="46.10503" lon="4.49888">
        <ele>506</ele>
        <time>2020-05-21T11:43:57+02:00</time>
      </trkpt>
      <trkpt lat="46.10505" lon="4.49901">
        <ele>506</ele>
        <time>2020-05-21T11:44:07+02:00</time>
      </trkpt>
      <trkpt lat="46.10507" lon="4.49914">
        <ele>507</ele>
        <time>2020-05-21T11:44:17+02:00</time>
      </trkpt>
      <trkpt lat="46.1051" lon="4.49927">
        <ele>507</ele>
        <time>2020-05-21T11:44:27+02:00</time>
      </trkpt>
      <trkpt lat="46.10511" lon="4.49941">
        <ele>507</ele>
        <time>2020-05-21T11:44:37+02:00</time>
      </trkpt>
      <trkpt lat="46.10512" lon="4.49954">
        <ele>507</ele>
        <time>2020-05-21T11:44:47+02:00</time>
      </trkpt>
      <trkpt lat="46.10515" lon="4.49967">
        <ele>508</ele>
        <time>2020-05-21T11:44:56+02:00</time>
      </trkpt>
      <trkpt lat="46.10518" lon="4.4998">
        <ele>508</ele>
        <time>2020-05-21T11:45:05+02:00</time>
      </trkpt>
      <trkpt lat="46.10522" lon="4.49993">
        <ele>509</ele>
        <time>2020-05-21T11:45:15+02:00</time>
      </trkpt>
      <trkpt lat="46.10526" lon="4.50004">
        <ele>510</ele>
        <time>2020-05-21T11:45:24+02:00</time>
      </trkpt>
      <trkpt lat="46.10528" lon="4.50017">
        <ele>510</ele>
        <time>2020-05-21T11:45:34+02:00</time>
      </trkpt>
      <trkpt lat="46.10534" lon="4.50028">
        <ele>511</ele>
        <time>2020-05-21T11:45:44+02:00</time>
      </trkpt>
      <trkpt lat="46.10542" lon="4.50036">
        <ele>512</ele>
        <time>2020-05-21T11:45:54+02:00</time>
      </trkpt>
      <trkpt lat="46.10549" lon="4.50046">
        <ele>514</ele>
        <time>2020-05-21T11:46:04+02:00</time>
      </trkpt>
      <trkpt lat="46.10556" lon="4.50055">
        <ele>515</ele>
        <time>2020-05-21T11:46:13+02:00</time>
      </trkpt>
      <trkpt lat="46.10561" lon="4.50066">
        <ele>516</ele>
        <time>2020-05-21T11:46:25+02:00</time>
      </trkpt>
      <trkpt lat="46.10563" lon="4.50079">
        <ele>517</ele>
        <time>2020-05-21T11:46:39+02:00</time>
      </trkpt>
      <trkpt lat="46.10565" lon="4.50092">
        <ele>518</ele>
        <time>2020-05-21T11:46:53+02:00</time>
      </trkpt>
      <trkpt lat="46.10567" lon="4.50106">
        <ele>519</ele>
        <time>2020-05-21T11:47:06+02:00</time>
      </trkpt>
      <trkpt lat="46.10573" lon="4.50118">
        <ele>520</ele>
        <time>2020-05-21T11:47:16+02:00</time>
      </trkpt>
      <trkpt lat="46.1058" lon="4.50127">
        <ele>521</ele>
        <time>2020-05-21T11:47:25+02:00</time>
      </trkpt>
      <trkpt lat="46.10587" lon="4.50137">
        <ele>521</ele>
        <time>2020-05-21T11:47:37+02:00</time>
      </trkpt>
      <trkpt lat="46.10593" lon="4.50148">
        <ele>522</ele>
        <time>2020-05-21T11:47:50+02:00</time>
      </trkpt>
      <trkpt lat="46.10602" lon="4.50154">
        <ele>523</ele>
        <time>2020-05-21T11:48:01+02:00</time>
      </trkpt>
      <trkpt lat="46.1061" lon="4.50161">
        <ele>525</ele>
        <time>2020-05-21T11:48:16+02:00</time>
      </trkpt>
      <trkpt lat="46.10619" lon="4.50167">
        <ele>526</ele>
        <time>2020-05-21T11:48:29+02:00</time>
      </trkpt>
      <trkpt lat="46.10628" lon="4.50171">
        <ele>527</ele>
        <time>2020-05-21T11:48:41+02:00</time>
      </trkpt>
      <trkpt lat="46.10638" lon="4.50171">
        <ele>528</ele>
        <time>2020-05-21T11:48:53+02:00</time>
      </trkpt>
      <trkpt lat="46.10647" lon="4.5017">
        <ele>529</ele>
        <time>2020-05-21T11:49:04+02:00</time>
      </trkpt>
      <trkpt lat="46.10657" lon="4.50169">
        <ele>531</ele>
        <time>2020-05-21T11:49:16+02:00</time>
      </trkpt>
      <trkpt lat="46.10666" lon="4.50167">
        <ele>532</ele>
        <time>2020-05-21T11:49:28+02:00</time>
      </trkpt>
      <trkpt lat="46.10674" lon="4.50159">
        <ele>534</ele>
        <time>2020-05-21T11:49:40+02:00</time>
      </trkpt>
      <trkpt lat="46.10682" lon="4.50151">
        <ele>536</ele>
        <time>2020-05-21T11:49:52+02:00</time>
      </trkpt>
      <trkpt lat="46.10691" lon="4.50148">
        <ele>538</ele>
        <time>2020-05-21T11:50:07+02:00</time>
      </trkpt>
      <trkpt lat="46.10699" lon="4.50142">
        <ele>539</ele>
        <time>2020-05-21T11:50:17+02:00</time>
      </trkpt>
      <trkpt lat="46.10707" lon="4.50137">
        <ele>541</ele>
        <time>2020-05-21T11:50:29+02:00</time>
      </trkpt>
      <trkpt lat="46.10717" lon="4.50135">
        <ele>543</ele>
        <time>2020-05-21T11:50:45+02:00</time>
      </trkpt>
      <trkpt lat="46.10726" lon="4.50135">
        <ele>545</ele>
        <time>2020-05-21T11:51:00+02:00</time>
      </trkpt>
      <trkpt lat="46.10735" lon="4.50138">
        <ele>548</ele>
        <time>2020-05-21T11:51:14+02:00</time>
      </trkpt>
      <trkpt lat="46.10744" lon="4.50142">
        <ele>550</ele>
        <time>2020-05-21T11:51:28+02:00</time>
      </trkpt>
      <trkpt lat="46.1075" lon="4.50152">
        <ele>552</ele>
        <time>2020-05-21T11:51:41+02:00</time>
      </trkpt>
      <trkpt lat="46.10758" lon="4.5016">
        <ele>555</ele>
        <time>2020-05-21T11:51:55+02:00</time>
      </trkpt>
      <trkpt lat="46.10765" lon="4.50169">
        <ele>557</ele>
        <time>2020-05-21T11:52:09+02:00</time>
      </trkpt>
      <trkpt lat="46.10807" lon="4.50249">
        <ele>573</ele>
        <time>2020-05-21T11:53:14+02:00</time>
      </trkpt>
      <trkpt lat="46.10863" lon="4.50163">
        <ele>583</ele>
        <time>2021-05-22T09:02:27+02:00</time>
      </trkpt>
      <trkpt lat="46.10905" lon="4.5">
        <ele>580</ele>
        <time>2021-05-22T09:02:32+02:00</time>
      </trkpt>
      <trkpt lat="46.10955" lon="4.49948">
        <ele>577</ele>
        <time>2021-05-22T09:02:37+02:00</time>
      </trkpt>
      <trkpt lat="46.10994" lon="4.5003">
        <ele>594</ele>
        <time>2021-05-22T09:02:42+02:00</time>
      </trkpt>
      <trkpt lat="46.11119" lon="4.50184">
        <ele>616</ele>
        <time>2021-05-22T09:02:47+02:00</time>
      </trkpt>
      <trkpt lat="46.11255" lon="4.50184">
        <ele>598</ele>
        <time>2020-05-21T12:12:31+02:00</time>
      </trkpt>
      <trkpt lat="46.11288" lon="4.50177">
        <ele>592</ele>
        <time>2020-05-21T12:17:19+02:00</time>
      </trkpt>
      <trkpt lat="46.11299" lon="4.50174">
        <ele>590</ele>
        <time>2020-05-21T12:17:25+02:00</time>
      </trkpt>
      <trkpt lat="46.11307" lon="4.50172">
        <ele>589</ele>
        <time>2020-05-21T12:17:31+02:00</time>
      </trkpt>
      <trkpt lat="46.11316" lon="4.50168">
        <ele>586</ele>
        <time>2020-05-21T12:17:39+02:00</time>
      </trkpt>
      <trkpt lat="46.11325" lon="4.50163">
        <ele>584</ele>
        <time>2020-05-21T12:17:46+02:00</time>
      </trkpt>
      <trkpt lat="46.11335" lon="4.50164">
        <ele>583</ele>
        <time>2020-05-21T12:17:58+02:00</time>
      </trkpt>
      <trkpt lat="46.11345" lon="4.50163">
        <ele>581</ele>
        <time>2020-05-21T12:18:29+02:00</time>
      </trkpt>
      <trkpt lat="46.11354" lon="4.50167">
        <ele>580</ele>
        <time>2020-05-21T12:18:40+02:00</time>
      </trkpt>
      <trkpt lat="46.11362" lon="4.50172">
        <ele>580</ele>
        <time>2020-05-21T12:18:50+02:00</time>
      </trkpt>
      <trkpt lat="46.11371" lon="4.50166">
        <ele>577</ele>
        <time>2020-05-21T12:19:01+02:00</time>
      </trkpt>
      <trkpt lat="46.1138" lon="4.50164">
        <ele>574</ele>
        <time>2020-05-21T12:20:38+02:00</time>
      </trkpt>
      <trkpt lat="46.11389" lon="4.50167">
        <ele>573</ele>
        <time>2020-05-21T12:20:52+02:00</time>
      </trkpt>
      <trkpt lat="46.11397" lon="4.50176">
        <ele>574</ele>
        <time>2020-05-21T12:21:03+02:00</time>
      </trkpt>
      <trkpt lat="46.11406" lon="4.50171">
        <ele>571</ele>
        <time>2020-05-21T12:21:15+02:00</time>
      </trkpt>
      <trkpt lat="46.11416" lon="4.50175">
        <ele>570</ele>
        <time>2020-05-21T12:21:30+02:00</time>
      </trkpt>
      <trkpt lat="46.11425" lon="4.50176">
        <ele>569</ele>
        <time>2020-05-21T12:21:40+02:00</time>
      </trkpt>
      <trkpt lat="46.11434" lon="4.50179">
        <ele>568</ele>
        <time>2020-05-21T12:21:50+02:00</time>
      </trkpt>
      <trkpt lat="46.11443" lon="4.50185">
        <ele>567</ele>
        <time>2020-05-21T12:22:01+02:00</time>
      </trkpt>
      <trkpt lat="46.11451" lon="4.50192">
        <ele>567</ele>
        <time>2020-05-21T12:22:29+02:00</time>
      </trkpt>
      <trkpt lat="46.1146" lon="4.50195">
        <ele>566</ele>
        <time>2020-05-21T12:22:38+02:00</time>
      </trkpt>
      <trkpt lat="46.11469" lon="4.50198">
        <ele>564</ele>
        <time>2020-05-21T12:22:57+02:00</time>
      </trkpt>
      <trkpt lat="46.11477" lon="4.50203">
        <ele>563</ele>
        <time>2020-05-21T12:23:11+02:00</time>
      </trkpt>
      <trkpt lat="46.11483" lon="4.50214">
        <ele>564</ele>
        <time>2020-05-21T12:23:23+02:00</time>
      </trkpt>
      <trkpt lat="46.11492" lon="4.50222">
        <ele>563</ele>
        <time>2020-05-21T12:23:34+02:00</time>
      </trkpt>
      <trkpt lat="46.11498" lon="4.50231">
        <ele>563</ele>
        <time>2020-05-21T12:23:46+02:00</time>
      </trkpt>
      <trkpt lat="46.11505" lon="4.50241">
        <ele>563</ele>
        <time>2020-05-21T12:24:01+02:00</time>
      </trkpt>
      <trkpt lat="46.11513" lon="4.50248">
        <ele>564</ele>
        <time>2020-05-21T12:24:10+02:00</time>
      </trkpt>
      <trkpt lat="46.1152" lon="4.50256">
        <ele>565</ele>
        <time>2020-05-21T12:24:26+02:00</time>
      </trkpt>
      <trkpt lat="46.11529" lon="4.50261">
        <ele>565</ele>
        <time>2020-05-21T12:24:48+02:00</time>
      </trkpt>
      <trkpt lat="46.11541" lon="4.50257">
        <ele>563</ele>
        <time>2020-05-21T12:27:59+02:00</time>
      </trkpt>
      <trkpt lat="46.11546" lon="4.50245">
        <ele>561</ele>
        <time>2020-05-21T12:28:45+02:00</time>
      </trkpt>
      <trkpt lat="46.11539" lon="4.50237">
        <ele>562</ele>
        <time>2020-05-21T12:28:54+02:00</time>
      </trkpt>
      <trkpt lat="46.11537" lon="4.50223">
        <ele>562</ele>
        <time>2020-05-21T12:29:09+02:00</time>
      </trkpt>
      <trkpt lat="46.11532" lon="4.50211">
        <ele>562</ele>
        <time>2020-05-21T12:29:21+02:00</time>
      </trkpt>
      <trkpt lat="46.11527" lon="4.502">
        <ele>561</ele>
        <time>2020-05-21T12:29:30+02:00</time>
      </trkpt>
      <trkpt lat="46.11522" lon="4.50188">
        <ele>560</ele>
        <time>2020-05-21T12:29:40+02:00</time>
      </trkpt>
      <trkpt lat="46.11516" lon="4.50179">
        <ele>558</ele>
        <time>2020-05-21T12:29:51+02:00</time>
      </trkpt>
      <trkpt lat="46.11512" lon="4.50168">
        <ele>556</ele>
        <time>2020-05-21T12:30:03+02:00</time>
      </trkpt>
      <trkpt lat="46.11507" lon="4.50156">
        <ele>555</ele>
        <time>2020-05-21T12:30:23+02:00</time>
      </trkpt>
      <trkpt lat="46.11499" lon="4.50149">
        <ele>554</ele>
        <time>2020-05-21T12:30:32+02:00</time>
      </trkpt>
      <trkpt lat="46.11493" lon="4.50138">
        <ele>554</ele>
        <time>2020-05-21T12:30:43+02:00</time>
      </trkpt>
      <trkpt lat="46.11486" lon="4.50128">
        <ele>555</ele>
        <time>2020-05-21T12:30:55+02:00</time>
      </trkpt>
      <trkpt lat="46.11479" lon="4.50119">
        <ele>555</ele>
        <time>2020-05-21T12:31:06+02:00</time>
      </trkpt>
      <trkpt lat="46.11473" lon="4.5011">
        <ele>554</ele>
        <time>2020-05-21T12:31:15+02:00</time>
      </trkpt>
      <trkpt lat="46.11465" lon="4.50102">
        <ele>554</ele>
        <time>2020-05-21T12:31:25+02:00</time>
      </trkpt>
      <trkpt lat="46.11456" lon="4.50096">
        <ele>553</ele>
        <time>2020-05-21T12:31:37+02:00</time>
      </trkpt>
      <trkpt lat="46.11448" lon="4.50089">
        <ele>551</ele>
        <time>2020-05-21T12:31:48+02:00</time>
      </trkpt>
      <trkpt lat="46.1144" lon="4.50082">
        <ele>550</ele>
        <time>2020-05-21T12:32:00+02:00</time>
      </trkpt>
      <trkpt lat="46.11432" lon="4.50074">
        <ele>548</ele>
        <time>2020-05-21T12:32:11+02:00</time>
      </trkpt>
      <trkpt lat="46.11428" lon="4.50062">
        <ele>546</ele>
        <time>2020-05-21T12:32:23+02:00</time>
      </trkpt>
      <trkpt lat="46.11422" lon="4.50052">
        <ele>543</ele>
        <time>2020-05-21T12:32:31+02:00</time>
      </trkpt>
      <trkpt lat="46.11413" lon="4.50047">
        <ele>542</ele>
        <time>2020-05-21T12:32:40+02:00</time>
      </trkpt>
      <trkpt lat="46.11404" lon="4.5004">
        <ele>540</ele>
        <time>2020-05-21T12:32:51+02:00</time>
      </trkpt>
      <trkpt lat="46.11397" lon="4.50033">
        <ele>539</ele>
        <time>2020-05-21T12:33:04+02:00</time>
      </trkpt>
      <trkpt lat="46.11387" lon="4.50031">
        <ele>539</ele>
        <time>2020-05-21T12:33:23+02:00</time>
      </trkpt>
      <trkpt lat="46.11379" lon="4.50025">
        <ele>537</ele>
        <time>2020-05-21T12:33:36+02:00</time>
      </trkpt>
      <trkpt lat="46.1137" lon="4.50021">
        <ele>536</ele>
        <time>2020-05-21T12:33:45+02:00</time>
      </trkpt>
      <trkpt lat="46.11363" lon="4.50011">
        <ele>533</ele>
        <time>2020-05-21T12:33:57+02:00</time>
      </trkpt>
      <trkpt lat="46.11356" lon="4.50002">
        <ele>530</ele>
        <time>2020-05-21T12:34:12+02:00</time>
      </trkpt>
      <trkpt lat="46.11347" lon="4.49997">
        <ele>529</ele>
        <time>2020-05-21T12:34:21+02:00</time>
      </trkpt>
      <trkpt lat="46.11338" lon="4.49993">
        <ele>529</ele>
        <time>2020-05-21T12:34:29+02:00</time>
      </trkpt>
      <trkpt lat="46.11329" lon="4.4999">
        <ele>529</ele>
        <time>2020-05-21T12:34:37+02:00</time>
      </trkpt>
      <trkpt lat="46.1132" lon="4.49987">
        <ele>529</ele>
        <time>2020-05-21T12:34:48+02:00</time>
      </trkpt>
      <trkpt lat="46.11312" lon="4.49979">
        <ele>529</ele>
        <time>2020-05-21T12:35:03+02:00</time>
      </trkpt>
      <trkpt lat="46.11303" lon="4.49973">
        <ele>529</ele>
        <time>2020-05-21T12:35:16+02:00</time>
      </trkpt>
      <trkpt lat="46.11297" lon="4.49963">
        <ele>529</ele>
        <time>2020-05-21T12:35:25+02:00</time>
      </trkpt>
      <trkpt lat="46.11292" lon="4.49952">
        <ele>527</ele>
        <time>2020-05-21T12:35:44+02:00</time>
      </trkpt>
      <trkpt lat="46.11284" lon="4.49944">
        <ele>526</ele>
        <time>2020-05-21T12:36:06+02:00</time>
      </trkpt>
      <trkpt lat="46.11279" lon="4.49934">
        <ele>524</ele>
        <time>2020-05-21T12:36:21+02:00</time>
      </trkpt>
      <trkpt lat="46.11272" lon="4.49925">
        <ele>522</ele>
        <time>2020-05-21T12:36:29+02:00</time>
      </trkpt>
      <trkpt lat="46.11264" lon="4.49918">
        <ele>520</ele>
        <time>2020-05-21T12:36:38+02:00</time>
      </trkpt>
      <trkpt lat="46.11256" lon="4.49912">
        <ele>520</ele>
        <time>2020-05-21T12:36:47+02:00</time>
      </trkpt>
      <trkpt lat="46.11249" lon="4.49902">
        <ele>520</ele>
        <time>2020-05-21T12:37:03+02:00</time>
      </trkpt>
      <trkpt lat="46.11245" lon="4.4989">
        <ele>522</ele>
        <time>2020-05-21T12:37:24+02:00</time>
      </trkpt>
      <trkpt lat="46.11242" lon="4.49877">
        <ele>523</ele>
        <time>2020-05-21T12:37:49+02:00</time>
      </trkpt>
      <trkpt lat="46.11234" lon="4.49871">
        <ele>523</ele>
        <time>2020-05-21T12:38:01+02:00</time>
      </trkpt>
      <trkpt lat="46.11167" lon="4.49763">
        <ele>516</ele>
        <time>2020-05-21T12:40:30+02:00</time>
      </trkpt>
      <trkpt lat="46.11117" lon="4.49715">
        <ele>513</ele>
        <time>2020-05-21T12:43:37+02:00</time>
      </trkpt>
      <trkpt lat="46.11112" lon="4.49704">
        <ele>512</ele>
        <time>2020-05-21T12:43:45+02:00</time>
      </trkpt>
      <trkpt lat="46.11104" lon="4.49696">
        <ele>511</ele>
        <time>2020-05-21T12:43:55+02:00</time>
      </trkpt>
      <trkpt lat="46.11097" lon="4.49687">
        <ele>509</ele>
        <time>2020-05-21T12:44:08+02:00</time>
      </trkpt>
      <trkpt lat="46.11087" lon="4.49685">
        <ele>506</ele>
        <time>2020-05-21T12:44:18+02:00</time>
      </trkpt>
      <trkpt lat="46.1108" lon="4.49677">
        <ele>505</ele>
        <time>2020-05-21T12:44:27+02:00</time>
      </trkpt>
      <trkpt lat="46.11072" lon="4.49668">
        <ele>504</ele>
        <time>2020-05-21T12:44:38+02:00</time>
      </trkpt>
      <trkpt lat="46.11068" lon="4.49655">
        <ele>504</ele>
        <time>2020-05-21T12:44:48+02:00</time>
      </trkpt>
      <trkpt lat="46.11063" lon="4.49644">
        <ele>503</ele>
        <time>2020-05-21T12:44:56+02:00</time>
      </trkpt>
      <trkpt lat="46.11059" lon="4.49632">
        <ele>501</ele>
        <time>2020-05-21T12:45:04+02:00</time>
      </trkpt>
      <trkpt lat="46.11054" lon="4.4962">
        <ele>500</ele>
        <time>2020-05-21T12:45:13+02:00</time>
      </trkpt>
      <trkpt lat="46.11048" lon="4.49609">
        <ele>498</ele>
        <time>2020-05-21T12:45:22+02:00</time>
      </trkpt>
      <trkpt lat="46.11043" lon="4.49599">
        <ele>496</ele>
        <time>2020-05-21T12:45:31+02:00</time>
      </trkpt>
      <trkpt lat="46.11035" lon="4.49592">
        <ele>494</ele>
        <time>2020-05-21T12:45:39+02:00</time>
      </trkpt>
      <trkpt lat="46.11026" lon="4.49589">
        <ele>492</ele>
        <time>2020-05-21T12:45:47+02:00</time>
      </trkpt>
      <trkpt lat="46.11017" lon="4.49582">
        <ele>489</ele>
        <time>2020-05-21T12:45:58+02:00</time>
      </trkpt>
      <trkpt lat="46.11009" lon="4.49575">
        <ele>487</ele>
        <time>2020-05-21T12:46:09+02:00</time>
      </trkpt>
      <trkpt lat="46.11002" lon="4.49566">
        <ele>485</ele>
        <time>2020-05-21T12:46:19+02:00</time>
      </trkpt>
      <trkpt lat="46.10994" lon="4.4956">
        <ele>484</ele>
        <time>2020-05-21T12:46:30+02:00</time>
      </trkpt>
      <trkpt lat="46.10987" lon="4.49553">
        <ele>483</ele>
        <time>2020-05-21T12:46:41+02:00</time>
      </trkpt>
      <trkpt lat="46.10979" lon="4.49543">
        <ele>482</ele>
        <time>2020-05-21T12:46:53+02:00</time>
      </trkpt>
      <trkpt lat="46.10972" lon="4.49537">
        <ele>481</ele>
        <time>2020-05-21T12:47:04+02:00</time>
      </trkpt>
      <trkpt lat="46.10967" lon="4.49544">
        <ele>482</ele>
        <time>2021-06-14T17:56:15+02:00</time>
      </trkpt>
      <trkpt lat="46.10958" lon="4.49531">
        <ele>480</ele>
        <time>2021-06-14T17:56:20+02:00</time>
      </trkpt>
      <trkpt lat="46.10957" lon="4.49519">
        <ele>478</ele>
        <time>2021-06-14T17:56:25+02:00</time>
      </trkpt>
      <trkpt lat="46.10948" lon="4.49506">
        <ele>475</ele>
        <time>2021-06-14T17:56:30+02:00</time>
      </trkpt>
      <trkpt lat="46.10936" lon="4.4948">
        <ele>471</ele>
        <time>2021-06-14T17:56:35+02:00</time>
      </trkpt>
      <trkpt lat="46.10933" lon="4.49481">
        <ele>471</ele>
        <time>2021-06-14T17:56:40+02:00</time>
      </trkpt>
      <trkpt lat="46.11003" lon="4.4945">
        <ele>473</ele>
        <time>2021-05-22T09:13:02+02:00</time>
      </trkpt>
      <trkpt lat="46.11092" lon="4.49408">
        <ele>479</ele>
        <time>2020-05-21T13:22:16+02:00</time>
      </trkpt>
      <trkpt lat="46.11098" lon="4.49418">
        <ele>481</ele>
        <time>2020-05-21T13:22:31+02:00</time>
      </trkpt>
      <trkpt lat="46.11108" lon="4.49418">
        <ele>483</ele>
        <time>2020-05-21T13:22:43+02:00</time>
      </trkpt>
      <trkpt lat="46.11117" lon="4.49417">
        <ele>484</ele>
        <time>2020-05-21T13:22:54+02:00</time>
      </trkpt>
      <trkpt lat="46.11126" lon="4.49413">
        <ele>485</ele>
        <time>2020-05-21T13:23:04+02:00</time>
      </trkpt>
      <trkpt lat="46.11135" lon="4.49409">
        <ele>486</ele>
        <time>2020-05-21T13:23:13+02:00</time>
      </trkpt>
      <trkpt lat="46.11144" lon="4.49403">
        <ele>486</ele>
        <time>2020-05-21T13:23:21+02:00</time>
      </trkpt>
      <trkpt lat="46.11152" lon="4.49397">
        <ele>486</ele>
        <time>2020-05-21T13:23:30+02:00</time>
      </trkpt>
      <trkpt lat="46.11161" lon="4.49392">
        <ele>487</ele>
        <time>2020-05-21T13:23:41+02:00</time>
      </trkpt>
      <trkpt lat="46.1117" lon="4.4939">
        <ele>488</ele>
        <time>2020-05-21T13:23:51+02:00</time>
      </trkpt>
      <trkpt lat="46.1118" lon="4.49385">
        <ele>488</ele>
        <time>2020-05-21T13:23:59+02:00</time>
      </trkpt>
      <trkpt lat="46.11189" lon="4.49382">
        <ele>489</ele>
        <time>2020-05-21T13:24:06+02:00</time>
      </trkpt>
      <trkpt lat="46.11198" lon="4.49379">
        <ele>490</ele>
        <time>2020-05-21T13:24:14+02:00</time>
      </trkpt>
      <trkpt lat="46.11207" lon="4.49376">
        <ele>491</ele>
        <time>2020-05-21T13:24:23+02:00</time>
      </trkpt>
      <trkpt lat="46.11216" lon="4.4937">
        <ele>491</ele>
        <time>2020-05-21T13:24:33+02:00</time>
      </trkpt>
      <trkpt lat="46.11223" lon="4.49363">
        <ele>490</ele>
        <time>2020-05-21T13:24:47+02:00</time>
      </trkpt>
      <trkpt lat="46.11231" lon="4.49356">
        <ele>490</ele>
        <time>2020-05-21T13:24:55+02:00</time>
      </trkpt>
      <trkpt lat="46.1124" lon="4.49353">
        <ele>490</ele>
        <time>2020-05-21T13:25:05+02:00</time>
      </trkpt>
      <trkpt lat="46.11249" lon="4.49348">
        <ele>490</ele>
        <time>2020-05-21T13:25:13+02:00</time>
      </trkpt>
      <trkpt lat="46.11258" lon="4.49342">
        <ele>490</ele>
        <time>2020-05-21T13:25:22+02:00</time>
      </trkpt>
      <trkpt lat="46.11267" lon="4.49339">
        <ele>491</ele>
        <time>2020-05-21T13:25:30+02:00</time>
      </trkpt>
      <trkpt lat="46.11276" lon="4.49335">
        <ele>491</ele>
        <time>2020-05-21T13:25:38+02:00</time>
      </trkpt>
      <trkpt lat="46.11285" lon="4.49331">
        <ele>492</ele>
        <time>2020-05-21T13:25:47+02:00</time>
      </trkpt>
      <trkpt lat="46.11295" lon="4.49327">
        <ele>493</ele>
        <time>2020-05-21T13:25:56+02:00</time>
      </trkpt>
      <trkpt lat="46.11304" lon="4.49325">
        <ele>494</ele>
        <time>2020-05-21T13:26:05+02:00</time>
      </trkpt>
      <trkpt lat="46.11314" lon="4.49323">
        <ele>495</ele>
        <time>2020-05-21T13:26:14+02:00</time>
      </trkpt>
      <trkpt lat="46.11323" lon="4.49319">
        <ele>496</ele>
        <time>2020-05-21T13:26:27+02:00</time>
      </trkpt>
      <trkpt lat="46.11332" lon="4.49317">
        <ele>497</ele>
        <time>2020-05-21T13:26:36+02:00</time>
      </trkpt>
      <trkpt lat="46.11342" lon="4.49315">
        <ele>497</ele>
        <time>2020-05-21T13:26:46+02:00</time>
      </trkpt>
      <trkpt lat="46.11352" lon="4.49314">
        <ele>497</ele>
        <time>2020-05-21T13:26:56+02:00</time>
      </trkpt>
      <trkpt lat="46.11362" lon="4.49313">
        <ele>497</ele>
        <time>2020-05-21T13:27:04+02:00</time>
      </trkpt>
      <trkpt lat="46.11372" lon="4.49312">
        <ele>496</ele>
        <time>2020-05-21T13:27:12+02:00</time>
      </trkpt>
      <trkpt lat="46.11381" lon="4.49314">
        <ele>497</ele>
        <time>2020-05-21T13:27:21+02:00</time>
      </trkpt>
      <trkpt lat="46.11391" lon="4.49316">
        <ele>497</ele>
        <time>2020-05-21T13:27:31+02:00</time>
      </trkpt>
      <trkpt lat="46.114" lon="4.49318">
        <ele>498</ele>
        <time>2020-05-21T13:27:43+02:00</time>
      </trkpt>
      <trkpt lat="46.1141" lon="4.4932">
        <ele>499</ele>
        <time>2020-05-21T13:27:53+02:00</time>
      </trkpt>
      <trkpt lat="46.11419" lon="4.49321">
        <ele>499</ele>
        <time>2020-05-21T13:28:01+02:00</time>
      </trkpt>
      <trkpt lat="46.11428" lon="4.49322">
        <ele>499</ele>
        <time>2020-05-21T13:28:08+02:00</time>
      </trkpt>
      <trkpt lat="46.11437" lon="4.49321">
        <ele>499</ele>
        <time>2020-05-21T13:28:16+02:00</time>
      </trkpt>
      <trkpt lat="46.11447" lon="4.4932">
        <ele>499</ele>
        <time>2020-05-21T13:28:26+02:00</time>
      </trkpt>
      <trkpt lat="46.11457" lon="4.49321">
        <ele>499</ele>
        <time>2020-05-21T13:28:36+02:00</time>
      </trkpt>
      <trkpt lat="46.11467" lon="4.4932">
        <ele>499</ele>
        <time>2020-05-21T13:28:46+02:00</time>
      </trkpt>
      <trkpt lat="46.11476" lon="4.49314">
        <ele>498</ele>
        <time>2020-05-21T13:28:56+02:00</time>
      </trkpt>
      <trkpt lat="46.11482" lon="4.49304">
        <ele>496</ele>
        <time>2020-05-21T13:29:03+02:00</time>
      </trkpt>
      <trkpt lat="46.11486" lon="4.49291">
        <ele>493</ele>
        <time>2020-05-21T13:29:10+02:00</time>
      </trkpt>
      <trkpt lat="46.11488" lon="4.49278">
        <ele>489</ele>
        <time>2020-05-21T13:29:36+02:00</time>
      </trkpt>
      <trkpt lat="46.11493" lon="4.49268">
        <ele>487</ele>
        <time>2020-05-21T13:29:48+02:00</time>
      </trkpt>
      <trkpt lat="46.11503" lon="4.49264">
        <ele>486</ele>
        <time>2020-05-21T13:30:00+02:00</time>
      </trkpt>
      <trkpt lat="46.11511" lon="4.49257">
        <ele>485</ele>
        <time>2020-05-21T13:30:08+02:00</time>
      </trkpt>
      <trkpt lat="46.11517" lon="4.49247">
        <ele>483</ele>
        <time>2020-05-21T13:30:17+02:00</time>
      </trkpt>
      <trkpt lat="46.11521" lon="4.49236">
        <ele>484</ele>
        <time>2020-05-21T13:30:25+02:00</time>
      </trkpt>
      <trkpt lat="46.11525" lon="4.49223">
        <ele>486</ele>
        <time>2020-05-21T13:30:34+02:00</time>
      </trkpt>
      <trkpt lat="46.11527" lon="4.4921">
        <ele>487</ele>
        <time>2020-05-21T13:30:41+02:00</time>
      </trkpt>
      <trkpt lat="46.11527" lon="4.49196">
        <ele>489</ele>
        <time>2020-05-21T13:30:50+02:00</time>
      </trkpt>
      <trkpt lat="46.11527" lon="4.49182">
        <ele>491</ele>
        <time>2020-05-21T13:31:02+02:00</time>
      </trkpt>
      <trkpt lat="46.11528" lon="4.49169">
        <ele>492</ele>
        <time>2020-05-21T13:31:22+02:00</time>
      </trkpt>
      <trkpt lat="46.11519" lon="4.49167">
        <ele>491</ele>
        <time>2020-05-21T13:31:37+02:00</time>
      </trkpt>
      <trkpt lat="46.11509" lon="4.49163">
        <ele>491</ele>
        <time>2020-05-21T13:31:54+02:00</time>
      </trkpt>
      <trkpt lat="46.11502" lon="4.49156">
        <ele>491</ele>
        <time>2020-05-21T13:32:10+02:00</time>
      </trkpt>
      <trkpt lat="46.11506" lon="4.49144">
        <ele>493</ele>
        <time>2020-05-21T13:32:33+02:00</time>
      </trkpt>
      <trkpt lat="46.11511" lon="4.49134">
        <ele>496</ele>
        <time>2020-05-21T13:32:50+02:00</time>
      </trkpt>
      <trkpt lat="46.11518" lon="4.49123">
        <ele>498</ele>
        <time>2020-05-21T13:33:05+02:00</time>
      </trkpt>
      <trkpt lat="46.11524" lon="4.49113">
        <ele>501</ele>
        <time>2020-05-21T13:33:18+02:00</time>
      </trkpt>
      <trkpt lat="46.11532" lon="4.49106">
        <ele>503</ele>
        <time>2020-05-21T13:33:35+02:00</time>
      </trkpt>
      <trkpt lat="46.11535" lon="4.49094">
        <ele>506</ele>
        <time>2020-05-21T13:33:50+02:00</time>
      </trkpt>
      <trkpt lat="46.1154" lon="4.49082">
        <ele>509</ele>
        <time>2020-05-21T13:34:04+02:00</time>
      </trkpt>
      <trkpt lat="46.11548" lon="4.49074">
        <ele>510</ele>
        <time>2020-05-21T13:34:20+02:00</time>
      </trkpt>
      <trkpt lat="46.11553" lon="4.49063">
        <ele>511</ele>
        <time>2020-05-21T13:34:40+02:00</time>
      </trkpt>
      <trkpt lat="46.11559" lon="4.49052">
        <ele>512</ele>
        <time>2020-05-21T13:35:03+02:00</time>
      </trkpt>
      <trkpt lat="46.11567" lon="4.49045">
        <ele>512</ele>
        <time>2020-05-21T13:35:15+02:00</time>
      </trkpt>
      <trkpt lat="46.11575" lon="4.49038">
        <ele>512</ele>
        <time>2020-05-21T13:35:42+02:00</time>
      </trkpt>
      <trkpt lat="46.11581" lon="4.49028">
        <ele>511</ele>
        <time>2020-05-21T13:35:57+02:00</time>
      </trkpt>
      <trkpt lat="46.11589" lon="4.49023">
        <ele>511</ele>
        <time>2020-05-21T13:36:08+02:00</time>
      </trkpt>
      <trkpt lat="46.11597" lon="4.49017">
        <ele>512</ele>
        <time>2020-05-21T13:36:24+02:00</time>
      </trkpt>
      <trkpt lat="46.11607" lon="4.49015">
        <ele>514</ele>
        <time>2020-05-21T13:36:52+02:00</time>
      </trkpt>
      <trkpt lat="46.11614" lon="4.49006">
        <ele>515</ele>
        <time>2020-05-21T13:37:07+02:00</time>
      </trkpt>
      <trkpt lat="46.11622" lon="4.48999">
        <ele>516</ele>
        <time>2020-05-21T13:37:26+02:00</time>
      </trkpt>
      <trkpt lat="46.1163" lon="4.48993">
        <ele>518</ele>
        <time>2020-05-21T13:37:39+02:00</time>
      </trkpt>
      <trkpt lat="46.11638" lon="4.48986">
        <ele>520</ele>
        <time>2020-05-21T13:37:48+02:00</time>
      </trkpt>
      <trkpt lat="46.11646" lon="4.48978">
        <ele>521</ele>
        <time>2020-05-21T13:37:58+02:00</time>
      </trkpt>
      <trkpt lat="46.11652" lon="4.48968">
        <ele>522</ele>
        <time>2020-05-21T13:38:15+02:00</time>
      </trkpt>
      <trkpt lat="46.11659" lon="4.4896">
        <ele>523</ele>
        <time>2020-05-21T13:38:33+02:00</time>
      </trkpt>
      <trkpt lat="46.11667" lon="4.48951">
        <ele>524</ele>
        <time>2020-05-21T13:38:52+02:00</time>
      </trkpt>
      <trkpt lat="46.11672" lon="4.48941">
        <ele>525</ele>
        <time>2020-05-21T13:39:06+02:00</time>
      </trkpt>
      <trkpt lat="46.11756" lon="4.48837">
        <ele>543</ele>
        <time>2021-05-22T09:20:07+02:00</time>
      </trkpt>
      <trkpt lat="46.11836" lon="4.48717">
        <ele>554</ele>
        <time>2021-05-22T09:20:12+02:00</time>
      </trkpt>
      <trkpt lat="46.11839" lon="4.48622">
        <ele>559</ele>
        <time>2021-05-22T09:20:17+02:00</time>
      </trkpt>
      <trkpt lat="46.11797" lon="4.48575">
        <ele>557</ele>
        <time>2021-05-22T09:20:22+02:00</time>
      </trkpt>
      <trkpt lat="46.11815" lon="4.48472">
        <ele>563</ele>
        <time>2021-05-22T09:20:27+02:00</time>
      </trkpt>
      <trkpt lat="46.11873" lon="4.48417">
        <ele>569</ele>
        <time>2020-05-21T13:51:44+02:00</time>
      </trkpt>
      <trkpt lat="46.11878" lon="4.48435">
        <ele>569</ele>
        <time>2020-05-21T13:51:46+02:00</time>
      </trkpt>
      <trkpt lat="46.11887" lon="4.48429">
        <ele>570</ele>
        <time>2020-05-21T13:51:52+02:00</time>
      </trkpt>
      <trkpt lat="46.11895" lon="4.48422">
        <ele>571</ele>
        <time>2020-05-21T13:52:04+02:00</time>
      </trkpt>
      <trkpt lat="46.11904" lon="4.48419">
        <ele>572</ele>
        <time>2020-05-21T13:52:15+02:00</time>
      </trkpt>
      <trkpt lat="46.11913" lon="4.48413">
        <ele>572</ele>
        <time>2020-05-21T13:52:26+02:00</time>
      </trkpt>
      <trkpt lat="46.11923" lon="4.48411">
        <ele>573</ele>
        <time>2020-05-21T13:52:35+02:00</time>
      </trkpt>
      <trkpt lat="46.11929" lon="4.48401">
        <ele>572</ele>
        <time>2020-05-21T13:52:48+02:00</time>
      </trkpt>
      <trkpt lat="46.11938" lon="4.48399">
        <ele>573</ele>
        <time>2020-05-21T13:52:59+02:00</time>
      </trkpt>
      <trkpt lat="46.11947" lon="4.48404">
        <ele>574</ele>
        <time>2020-05-21T13:53:40+02:00</time>
      </trkpt>
      <trkpt lat="46.11952" lon="4.48415">
        <ele>575</ele>
        <time>2020-05-21T13:54:43+02:00</time>
      </trkpt>
      <trkpt lat="46.11954" lon="4.48428">
        <ele>575</ele>
        <time>2020-05-21T13:54:55+02:00</time>
      </trkpt>
      <trkpt lat="46.11959" lon="4.48439">
        <ele>575</ele>
        <time>2020-05-21T13:55:09+02:00</time>
      </trkpt>
      <trkpt lat="46.11967" lon="4.48446">
        <ele>575</ele>
        <time>2020-05-21T13:55:20+02:00</time>
      </trkpt>
      <trkpt lat="46.11975" lon="4.48452">
        <ele>575</ele>
        <time>2020-05-21T13:55:30+02:00</time>
      </trkpt>
      <trkpt lat="46.11985" lon="4.48453">
        <ele>576</ele>
        <time>2020-05-21T13:55:38+02:00</time>
      </trkpt>
      <trkpt lat="46.11994" lon="4.48454">
        <ele>576</ele>
        <time>2020-05-21T13:55:47+02:00</time>
      </trkpt>
      <trkpt lat="46.12003" lon="4.48456">
        <ele>576</ele>
        <time>2020-05-21T13:55:57+02:00</time>
      </trkpt>
      <trkpt lat="46.12012" lon="4.48455">
        <ele>577</ele>
        <time>2020-05-21T13:56:06+02:00</time>
      </trkpt>
      <trkpt lat="46.12022" lon="4.48456">
        <ele>578</ele>
        <time>2020-05-21T13:56:14+02:00</time>
      </trkpt>
      <trkpt lat="46.12029" lon="4.48449">
        <ele>579</ele>
        <time>2020-05-21T13:56:37+02:00</time>
      </trkpt>
      <trkpt lat="46.12034" lon="4.48437">
        <ele>580</ele>
        <time>2020-05-21T13:56:58+02:00</time>
      </trkpt>
      <trkpt lat="46.12035" lon="4.48423">
        <ele>581</ele>
        <time>2020-05-21T13:57:14+02:00</time>
      </trkpt>
      <trkpt lat="46.12035" lon="4.4841">
        <ele>581</ele>
        <time>2020-05-21T13:57:23+02:00</time>
      </trkpt>
      <trkpt lat="46.12036" lon="4.48396">
        <ele>582</ele>
        <time>2020-05-21T13:57:33+02:00</time>
      </trkpt>
      <trkpt lat="46.12039" lon="4.48384">
        <ele>582</ele>
        <time>2020-05-21T13:58:27+02:00</time>
      </trkpt>
      <trkpt lat="46.12049" lon="4.48385">
        <ele>583</ele>
        <time>2020-05-21T13:58:38+02:00</time>
      </trkpt>
      <trkpt lat="46.12056" lon="4.48377">
        <ele>584</ele>
        <time>2020-05-21T13:58:53+02:00</time>
      </trkpt>
      <trkpt lat="46.12058" lon="4.48363">
        <ele>585</ele>
        <time>2020-05-21T13:59:02+02:00</time>
      </trkpt>
      <trkpt lat="46.12058" lon="4.4835">
        <ele>585</ele>
        <time>2020-05-21T13:59:12+02:00</time>
      </trkpt>
      <trkpt lat="46.12058" lon="4.48336">
        <ele>586</ele>
        <time>2020-05-21T13:59:23+02:00</time>
      </trkpt>
      <trkpt lat="46.12061" lon="4.48324">
        <ele>586</ele>
        <time>2020-05-21T13:59:34+02:00</time>
      </trkpt>
      <trkpt lat="46.12064" lon="4.48311">
        <ele>586</ele>
        <time>2020-05-21T13:59:51+02:00</time>
      </trkpt>
      <trkpt lat="46.12069" lon="4.48299">
        <ele>586</ele>
        <time>2020-05-21T14:00:02+02:00</time>
      </trkpt>
      <trkpt lat="46.12075" lon="4.48289">
        <ele>587</ele>
        <time>2020-05-21T14:00:13+02:00</time>
      </trkpt>
      <trkpt lat="46.12079" lon="4.48277">
        <ele>588</ele>
        <time>2020-05-21T14:00:24+02:00</time>
      </trkpt>
      <trkpt lat="46.12082" lon="4.48264">
        <ele>588</ele>
        <time>2020-05-21T14:00:35+02:00</time>
      </trkpt>
      <trkpt lat="46.12081" lon="4.4825">
        <ele>588</ele>
        <time>2020-05-21T14:00:48+02:00</time>
      </trkpt>
      <trkpt lat="46.1208" lon="4.48237">
        <ele>587</ele>
        <time>2020-05-21T14:00:58+02:00</time>
      </trkpt>
      <trkpt lat="46.12081" lon="4.48223">
        <ele>588</ele>
        <time>2020-05-21T14:01:11+02:00</time>
      </trkpt>
      <trkpt lat="46.12082" lon="4.48209">
        <ele>588</ele>
        <time>2020-05-21T14:01:21+02:00</time>
      </trkpt>
      <trkpt lat="46.12082" lon="4.48195">
        <ele>588</ele>
        <time>2020-05-21T14:01:31+02:00</time>
      </trkpt>
      <trkpt lat="46.12084" lon="4.48182">
        <ele>588</ele>
        <time>2020-05-21T14:01:41+02:00</time>
      </trkpt>
      <trkpt lat="46.12083" lon="4.48168">
        <ele>588</ele>
        <time>2020-05-21T14:01:51+02:00</time>
      </trkpt>
      <trkpt lat="46.12081" lon="4.48155">
        <ele>588</ele>
        <time>2020-05-21T14:02:03+02:00</time>
      </trkpt>
      <trkpt lat="46.12079" lon="4.4814">
        <ele>588</ele>
        <time>2020-05-21T14:02:14+02:00</time>
      </trkpt>
      <trkpt lat="46.12079" lon="4.48127">
        <ele>588</ele>
        <time>2020-05-21T14:02:22+02:00</time>
      </trkpt>
      <trkpt lat="46.12077" lon="4.48112">
        <ele>588</ele>
        <time>2020-05-21T14:02:29+02:00</time>
      </trkpt>
      <trkpt lat="46.12075" lon="4.48099">
        <ele>588</ele>
        <time>2020-05-21T14:02:37+02:00</time>
      </trkpt>
      <trkpt lat="46.12071" lon="4.48087">
        <ele>588</ele>
        <time>2020-05-21T14:02:49+02:00</time>
      </trkpt>
      <trkpt lat="46.12065" lon="4.48073">
        <ele>587</ele>
        <time>2020-05-21T14:02:58+02:00</time>
      </trkpt>
      <trkpt lat="46.12061" lon="4.4806">
        <ele>587</ele>
        <time>2020-05-21T14:03:03+02:00</time>
      </trkpt>
      <trkpt lat="46.12058" lon="4.48047">
        <ele>588</ele>
        <time>2020-05-21T14:03:08+02:00</time>
      </trkpt>
      <trkpt lat="46.12055" lon="4.48033">
        <ele>588</ele>
        <time>2020-05-21T14:03:14+02:00</time>
      </trkpt>
      <trkpt lat="46.12051" lon="4.48021">
        <ele>588</ele>
        <time>2020-05-21T14:03:23+02:00</time>
      </trkpt>
      <trkpt lat="46.12051" lon="4.48007">
        <ele>590</ele>
        <time>2020-05-21T14:03:41+02:00</time>
      </trkpt>
      <trkpt lat="46.12045" lon="4.47996">
        <ele>590</ele>
        <time>2020-05-21T14:03:49+02:00</time>
      </trkpt>
      <trkpt lat="46.12036" lon="4.4799">
        <ele>589</ele>
        <time>2020-05-21T14:03:56+02:00</time>
      </trkpt>
      <trkpt lat="46.12029" lon="4.47983">
        <ele>588</ele>
        <time>2020-05-21T14:04:05+02:00</time>
      </trkpt>
      <trkpt lat="46.12021" lon="4.47974">
        <ele>588</ele>
        <time>2020-05-21T14:04:19+02:00</time>
      </trkpt>
      <trkpt lat="46.12015" lon="4.47962">
        <ele>588</ele>
        <time>2020-05-21T14:04:30+02:00</time>
      </trkpt>
      <trkpt lat="46.12008" lon="4.47956">
        <ele>588</ele>
        <time>2020-05-21T14:04:40+02:00</time>
      </trkpt>
      <trkpt lat="46.12" lon="4.47947">
        <ele>588</ele>
        <time>2020-05-21T14:04:55+02:00</time>
      </trkpt>
      <trkpt lat="46.11994" lon="4.47938">
        <ele>588</ele>
        <time>2020-05-21T14:05:04+02:00</time>
      </trkpt>
      <trkpt lat="46.11988" lon="4.47928">
        <ele>588</ele>
        <time>2020-05-21T14:05:15+02:00</time>
      </trkpt>
      <trkpt lat="46.11981" lon="4.47917">
        <ele>589</ele>
        <time>2020-05-21T14:05:25+02:00</time>
      </trkpt>
      <trkpt lat="46.11976" lon="4.47906">
        <ele>588</ele>
        <time>2020-05-21T14:05:35+02:00</time>
      </trkpt>
      <trkpt lat="46.11971" lon="4.47895">
        <ele>588</ele>
        <time>2020-05-21T14:05:49+02:00</time>
      </trkpt>
      <trkpt lat="46.11971" lon="4.47882">
        <ele>589</ele>
        <time>2020-05-21T14:06:03+02:00</time>
      </trkpt>
      <trkpt lat="46.1197" lon="4.47868">
        <ele>590</ele>
        <time>2020-05-21T14:06:14+02:00</time>
      </trkpt>
      <trkpt lat="46.1197" lon="4.47854">
        <ele>591</ele>
        <time>2020-05-21T14:06:24+02:00</time>
      </trkpt>
      <trkpt lat="46.11969" lon="4.47839">
        <ele>592</ele>
        <time>2020-05-21T14:06:34+02:00</time>
      </trkpt>
      <trkpt lat="46.11971" lon="4.47827">
        <ele>593</ele>
        <time>2020-05-21T14:06:43+02:00</time>
      </trkpt>
      <trkpt lat="46.1197" lon="4.47812">
        <ele>593</ele>
        <time>2020-05-21T14:06:53+02:00</time>
      </trkpt>
      <trkpt lat="46.11968" lon="4.47799">
        <ele>593</ele>
        <time>2020-05-21T14:07:02+02:00</time>
      </trkpt>
      <trkpt lat="46.11967" lon="4.47786">
        <ele>592</ele>
        <time>2020-05-21T14:07:13+02:00</time>
      </trkpt>
      <trkpt lat="46.11965" lon="4.47772">
        <ele>592</ele>
        <time>2020-05-21T14:07:51+02:00</time>
      </trkpt>
      <trkpt lat="46.11967" lon="4.47759">
        <ele>592</ele>
        <time>2020-05-21T14:09:12+02:00</time>
      </trkpt>
      <trkpt lat="46.11968" lon="4.47745">
        <ele>592</ele>
        <time>2020-05-21T14:09:24+02:00</time>
      </trkpt>
      <trkpt lat="46.11973" lon="4.47734">
        <ele>592</ele>
        <time>2020-05-21T14:09:45+02:00</time>
      </trkpt>
      <trkpt lat="46.11978" lon="4.47723">
        <ele>591</ele>
        <time>2020-05-21T14:09:57+02:00</time>
      </trkpt>
      <trkpt lat="46.11984" lon="4.47711">
        <ele>589</ele>
        <time>2020-05-21T14:10:08+02:00</time>
      </trkpt>
      <trkpt lat="46.11989" lon="4.477">
        <ele>588</ele>
        <time>2020-05-21T14:10:48+02:00</time>
      </trkpt>
      <trkpt lat="46.11992" lon="4.47687">
        <ele>586</ele>
        <time>2020-05-21T14:10:59+02:00</time>
      </trkpt>
      <trkpt lat="46.11994" lon="4.47674">
        <ele>584</ele>
        <time>2020-05-21T14:11:09+02:00</time>
      </trkpt>
      <trkpt lat="46.11995" lon="4.4766">
        <ele>584</ele>
        <time>2020-05-21T14:11:20+02:00</time>
      </trkpt>
      <trkpt lat="46.11996" lon="4.47647">
        <ele>584</ele>
        <time>2020-05-21T14:11:32+02:00</time>
      </trkpt>
      <trkpt lat="46.11997" lon="4.47634">
        <ele>584</ele>
        <time>2020-05-21T14:11:47+02:00</time>
      </trkpt>
      <trkpt lat="46.11998" lon="4.4762">
        <ele>584</ele>
        <time>2020-05-21T14:11:57+02:00</time>
      </trkpt>
      <trkpt lat="46.12001" lon="4.47607">
        <ele>584</ele>
        <time>2020-05-21T14:12:06+02:00</time>
      </trkpt>
      <trkpt lat="46.12002" lon="4.47593">
        <ele>584</ele>
        <time>2020-05-21T14:12:16+02:00</time>
      </trkpt>
      <trkpt lat="46.12" lon="4.4758">
        <ele>585</ele>
        <time>2020-05-21T14:12:25+02:00</time>
      </trkpt>
      <trkpt lat="46.11999" lon="4.47566">
        <ele>586</ele>
        <time>2020-05-21T14:12:37+02:00</time>
      </trkpt>
      <trkpt lat="46.12002" lon="4.47553">
        <ele>585</ele>
        <time>2020-05-21T14:12:47+02:00</time>
      </trkpt>
      <trkpt lat="46.12002" lon="4.4754">
        <ele>586</ele>
        <time>2020-05-21T14:12:58+02:00</time>
      </trkpt>
      <trkpt lat="46.11999" lon="4.47527">
        <ele>587</ele>
        <time>2020-05-21T14:13:09+02:00</time>
      </trkpt>
      <trkpt lat="46.12004" lon="4.47515">
        <ele>586</ele>
        <time>2020-05-21T14:13:17+02:00</time>
      </trkpt>
      <trkpt lat="46.12005" lon="4.47501">
        <ele>586</ele>
        <time>2020-05-21T14:13:27+02:00</time>
      </trkpt>
      <trkpt lat="46.12007" lon="4.47487">
        <ele>586</ele>
        <time>2020-05-21T14:13:36+02:00</time>
      </trkpt>
      <trkpt lat="46.1201" lon="4.47474">
        <ele>586</ele>
        <time>2020-05-21T14:13:51+02:00</time>
      </trkpt>
      <trkpt lat="46.12008" lon="4.47461">
        <ele>588</ele>
        <time>2020-05-21T14:14:06+02:00</time>
      </trkpt>
      <trkpt lat="46.12008" lon="4.47448">
        <ele>589</ele>
        <time>2020-05-21T14:14:18+02:00</time>
      </trkpt>
      <trkpt lat="46.1201" lon="4.47435">
        <ele>589</ele>
        <time>2020-05-21T14:14:27+02:00</time>
      </trkpt>
      <trkpt lat="46.12011" lon="4.47422">
        <ele>589</ele>
        <time>2020-05-21T14:14:42+02:00</time>
      </trkpt>
      <trkpt lat="46.12013" lon="4.47409">
        <ele>589</ele>
        <time>2020-05-21T14:14:52+02:00</time>
      </trkpt>
      <trkpt lat="46.12016" lon="4.47396">
        <ele>588</ele>
        <time>2020-05-21T14:15:01+02:00</time>
      </trkpt>
      <trkpt lat="46.12022" lon="4.47385">
        <ele>586</ele>
        <time>2020-05-21T14:15:08+02:00</time>
      </trkpt>
      <trkpt lat="46.12024" lon="4.47372">
        <ele>586</ele>
        <time>2020-05-21T14:15:16+02:00</time>
      </trkpt>
      <trkpt lat="46.12025" lon="4.47358">
        <ele>586</ele>
        <time>2020-05-21T14:15:24+02:00</time>
      </trkpt>
      <trkpt lat="46.12027" lon="4.47345">
        <ele>586</ele>
        <time>2020-05-21T14:15:33+02:00</time>
      </trkpt>
      <trkpt lat="46.12026" lon="4.47332">
        <ele>587</ele>
        <time>2020-05-21T14:15:49+02:00</time>
      </trkpt>
      <trkpt lat="46.12031" lon="4.4732">
        <ele>586</ele>
        <time>2020-05-21T14:16:01+02:00</time>
      </trkpt>
      <trkpt lat="46.12032" lon="4.47306">
        <ele>586</ele>
        <time>2020-05-21T14:16:12+02:00</time>
      </trkpt>
      <trkpt lat="46.12032" lon="4.47292">
        <ele>587</ele>
        <time>2020-05-21T14:16:25+02:00</time>
      </trkpt>
      <trkpt lat="46.12036" lon="4.4728">
        <ele>586</ele>
        <time>2020-05-21T14:16:33+02:00</time>
      </trkpt>
      <trkpt lat="46.12035" lon="4.47266">
        <ele>587</ele>
        <time>2020-05-21T14:16:42+02:00</time>
      </trkpt>
      <trkpt lat="46.12032" lon="4.47252">
        <ele>590</ele>
        <time>2020-05-21T14:16:51+02:00</time>
      </trkpt>
      <trkpt lat="46.12031" lon="4.47237">
        <ele>590</ele>
        <time>2020-05-21T14:17:02+02:00</time>
      </trkpt>
      <trkpt lat="46.12031" lon="4.47224">
        <ele>590</ele>
        <time>2020-05-21T14:17:10+02:00</time>
      </trkpt>
      <trkpt lat="46.12036" lon="4.47213">
        <ele>587</ele>
        <time>2020-05-21T14:17:20+02:00</time>
      </trkpt>
      <trkpt lat="46.12038" lon="4.47199">
        <ele>586</ele>
        <time>2020-05-21T14:17:30+02:00</time>
      </trkpt>
      <trkpt lat="46.12035" lon="4.47185">
        <ele>587</ele>
        <time>2020-05-21T14:17:39+02:00</time>
      </trkpt>
      <trkpt lat="46.12027" lon="4.47178">
        <ele>590</ele>
        <time>2020-05-21T14:17:48+02:00</time>
      </trkpt>
      <trkpt lat="46.12027" lon="4.47164">
        <ele>590</ele>
        <time>2020-05-21T14:18:07+02:00</time>
      </trkpt>
      <trkpt lat="46.12026" lon="4.4715">
        <ele>589</ele>
        <time>2020-05-21T14:18:16+02:00</time>
      </trkpt>
      <trkpt lat="46.12019" lon="4.47141">
        <ele>591</ele>
        <time>2020-05-21T14:18:24+02:00</time>
      </trkpt>
      <trkpt lat="46.12019" lon="4.47127">
        <ele>590</ele>
        <time>2020-05-21T14:18:33+02:00</time>
      </trkpt>
      <trkpt lat="46.12014" lon="4.47115">
        <ele>591</ele>
        <time>2020-05-21T14:18:42+02:00</time>
      </trkpt>
      <trkpt lat="46.12008" lon="4.47105">
        <ele>593</ele>
        <time>2020-05-21T14:18:53+02:00</time>
      </trkpt>
      <trkpt lat="46.11999" lon="4.47099">
        <ele>595</ele>
        <time>2020-05-21T14:19:03+02:00</time>
      </trkpt>
      <trkpt lat="46.11989" lon="4.47101">
        <ele>596</ele>
        <time>2020-05-21T14:19:30+02:00</time>
      </trkpt>
      <trkpt lat="46.11981" lon="4.47097">
        <ele>596</ele>
        <time>2020-05-21T14:19:37+02:00</time>
      </trkpt>
      <trkpt lat="46.11972" lon="4.47093">
        <ele>596</ele>
        <time>2020-05-21T14:19:50+02:00</time>
      </trkpt>
      <trkpt lat="46.11963" lon="4.47091">
        <ele>597</ele>
        <time>2020-05-21T14:19:59+02:00</time>
      </trkpt>
      <trkpt lat="46.11953" lon="4.47089">
        <ele>597</ele>
        <time>2020-05-21T14:20:10+02:00</time>
      </trkpt>
      <trkpt lat="46.11944" lon="4.47086">
        <ele>597</ele>
        <time>2020-05-21T14:20:21+02:00</time>
      </trkpt>
      <trkpt lat="46.11934" lon="4.47084">
        <ele>597</ele>
        <time>2020-05-21T14:20:31+02:00</time>
      </trkpt>
      <trkpt lat="46.11925" lon="4.47082">
        <ele>597</ele>
        <time>2020-05-21T14:20:43+02:00</time>
      </trkpt>
      <trkpt lat="46.11916" lon="4.47084">
        <ele>598</ele>
        <time>2020-05-21T14:20:53+02:00</time>
      </trkpt>
      <trkpt lat="46.11907" lon="4.47082">
        <ele>597</ele>
        <time>2020-05-21T14:21:05+02:00</time>
      </trkpt>
      <trkpt lat="46.11898" lon="4.47084">
        <ele>597</ele>
        <time>2020-05-21T14:21:19+02:00</time>
      </trkpt>
      <trkpt lat="46.11889" lon="4.47078">
        <ele>595</ele>
        <time>2020-05-21T14:21:30+02:00</time>
      </trkpt>
      <trkpt lat="46.11879" lon="4.47077">
        <ele>595</ele>
        <time>2020-05-21T14:21:42+02:00</time>
      </trkpt>
      <trkpt lat="46.1187" lon="4.47073">
        <ele>593</ele>
        <time>2020-05-21T14:21:53+02:00</time>
      </trkpt>
      <trkpt lat="46.11862" lon="4.47069">
        <ele>592</ele>
        <time>2020-05-21T14:22:05+02:00</time>
      </trkpt>
      <trkpt lat="46.11853" lon="4.47064">
        <ele>590</ele>
        <time>2020-05-21T14:22:22+02:00</time>
      </trkpt>
      <trkpt lat="46.11843" lon="4.47061">
        <ele>589</ele>
        <time>2020-05-21T14:22:38+02:00</time>
      </trkpt>
      <trkpt lat="46.11835" lon="4.47055">
        <ele>587</ele>
        <time>2020-05-21T14:22:47+02:00</time>
      </trkpt>
      <trkpt lat="46.11825" lon="4.47055">
        <ele>586</ele>
        <time>2020-05-21T14:23:03+02:00</time>
      </trkpt>
      <trkpt lat="46.11815" lon="4.47053">
        <ele>585</ele>
        <time>2020-05-21T14:23:15+02:00</time>
      </trkpt>
      <trkpt lat="46.11806" lon="4.47051">
        <ele>583</ele>
        <time>2020-05-21T14:23:25+02:00</time>
      </trkpt>
      <trkpt lat="46.11797" lon="4.47045">
        <ele>581</ele>
        <time>2020-05-21T14:23:38+02:00</time>
      </trkpt>
      <trkpt lat="46.11789" lon="4.4704">
        <ele>579</ele>
        <time>2020-05-21T14:23:52+02:00</time>
      </trkpt>
      <trkpt lat="46.11779" lon="4.47038">
        <ele>578</ele>
        <time>2020-05-21T14:24:02+02:00</time>
      </trkpt>
      <trkpt lat="46.11769" lon="4.47035">
        <ele>577</ele>
        <time>2020-05-21T14:24:10+02:00</time>
      </trkpt>
      <trkpt lat="46.11759" lon="4.47036">
        <ele>576</ele>
        <time>2020-05-21T14:24:17+02:00</time>
      </trkpt>
      <trkpt lat="46.11751" lon="4.4704">
        <ele>576</ele>
        <time>2020-05-21T14:24:24+02:00</time>
      </trkpt>
      <trkpt lat="46.11742" lon="4.47046">
        <ele>577</ele>
        <time>2020-05-21T14:24:33+02:00</time>
      </trkpt>
      <trkpt lat="46.11733" lon="4.47049">
        <ele>578</ele>
        <time>2020-05-21T14:24:45+02:00</time>
      </trkpt>
      <trkpt lat="46.11724" lon="4.4705">
        <ele>578</ele>
        <time>2020-05-21T14:24:53+02:00</time>
      </trkpt>
      <trkpt lat="46.11714" lon="4.47049">
        <ele>577</ele>
        <time>2020-05-21T14:25:02+02:00</time>
      </trkpt>
      <trkpt lat="46.11705" lon="4.47053">
        <ele>578</ele>
        <time>2020-05-21T14:25:13+02:00</time>
      </trkpt>
      <trkpt lat="46.11696" lon="4.47048">
        <ele>576</ele>
        <time>2020-05-21T14:25:22+02:00</time>
      </trkpt>
      <trkpt lat="46.11687" lon="4.47053">
        <ele>577</ele>
        <time>2020-05-21T14:25:30+02:00</time>
      </trkpt>
      <trkpt lat="46.11678" lon="4.47054">
        <ele>577</ele>
        <time>2020-05-21T14:25:39+02:00</time>
      </trkpt>
      <trkpt lat="46.11668" lon="4.47054">
        <ele>577</ele>
        <time>2020-05-21T14:25:49+02:00</time>
      </trkpt>
      <trkpt lat="46.1166" lon="4.47058">
        <ele>576</ele>
        <time>2020-05-21T14:25:59+02:00</time>
      </trkpt>
      <trkpt lat="46.11651" lon="4.47062">
        <ele>576</ele>
        <time>2020-05-21T14:26:10+02:00</time>
      </trkpt>
      <trkpt lat="46.11643" lon="4.47069">
        <ele>576</ele>
        <time>2020-05-21T14:26:21+02:00</time>
      </trkpt>
      <trkpt lat="46.11634" lon="4.47074">
        <ele>576</ele>
        <time>2020-05-21T14:26:30+02:00</time>
      </trkpt>
      <trkpt lat="46.11625" lon="4.47081">
        <ele>576</ele>
        <time>2020-05-21T14:26:38+02:00</time>
      </trkpt>
      <trkpt lat="46.11618" lon="4.4709">
        <ele>576</ele>
        <time>2020-05-21T14:26:47+02:00</time>
      </trkpt>
      <trkpt lat="46.11612" lon="4.47101">
        <ele>577</ele>
        <time>2020-05-21T14:27:00+02:00</time>
      </trkpt>
      <trkpt lat="46.11607" lon="4.47113">
        <ele>578</ele>
        <time>2020-05-21T14:27:10+02:00</time>
      </trkpt>
      <trkpt lat="46.11601" lon="4.47124">
        <ele>579</ele>
        <time>2020-05-21T14:27:20+02:00</time>
      </trkpt>
      <trkpt lat="46.11597" lon="4.47137">
        <ele>580</ele>
        <time>2020-05-21T14:27:30+02:00</time>
      </trkpt>
      <trkpt lat="46.11588" lon="4.4714">
        <ele>578</ele>
        <time>2020-05-21T14:27:40+02:00</time>
      </trkpt>
      <trkpt lat="46.11583" lon="4.47152">
        <ele>579</ele>
        <time>2020-05-21T14:27:49+02:00</time>
      </trkpt>
      <trkpt lat="46.11581" lon="4.47167">
        <ele>580</ele>
        <time>2020-05-21T14:27:56+02:00</time>
      </trkpt>
      <trkpt lat="46.1158" lon="4.4718">
        <ele>582</ele>
        <time>2020-05-21T14:28:02+02:00</time>
      </trkpt>
      <trkpt lat="46.11578" lon="4.47193">
        <ele>584</ele>
        <time>2020-05-21T14:28:10+02:00</time>
      </trkpt>
      <trkpt lat="46.11576" lon="4.47207">
        <ele>586</ele>
        <time>2020-05-21T14:28:20+02:00</time>
      </trkpt>
      <trkpt lat="46.1157" lon="4.47218">
        <ele>586</ele>
        <time>2020-05-21T14:28:28+02:00</time>
      </trkpt>
      <trkpt lat="46.11565" lon="4.47229">
        <ele>586</ele>
        <time>2020-05-21T14:28:42+02:00</time>
      </trkpt>
      <trkpt lat="46.11559" lon="4.4724">
        <ele>586</ele>
        <time>2020-05-21T14:28:57+02:00</time>
      </trkpt>
      <trkpt lat="46.11555" lon="4.47252">
        <ele>587</ele>
        <time>2020-05-21T14:29:08+02:00</time>
      </trkpt>
      <trkpt lat="46.11548" lon="4.47261">
        <ele>587</ele>
        <time>2020-05-21T14:29:19+02:00</time>
      </trkpt>
      <trkpt lat="46.11542" lon="4.4727">
        <ele>587</ele>
        <time>2020-05-21T14:29:38+02:00</time>
      </trkpt>
      <trkpt lat="46.11539" lon="4.47284">
        <ele>588</ele>
        <time>2020-05-21T14:29:49+02:00</time>
      </trkpt>
      <trkpt lat="46.11537" lon="4.47297">
        <ele>590</ele>
        <time>2020-05-21T14:29:58+02:00</time>
      </trkpt>
      <trkpt lat="46.11529" lon="4.47302">
        <ele>589</ele>
        <time>2020-05-21T14:30:12+02:00</time>
      </trkpt>
      <trkpt lat="46.11519" lon="4.47304">
        <ele>587</ele>
        <time>2020-05-21T14:30:20+02:00</time>
      </trkpt>
      <trkpt lat="46.11511" lon="4.47312">
        <ele>586</ele>
        <time>2020-05-21T14:30:26+02:00</time>
      </trkpt>
      <trkpt lat="46.11504" lon="4.4732">
        <ele>586</ele>
        <time>2020-05-21T14:30:35+02:00</time>
      </trkpt>
      <trkpt lat="46.11496" lon="4.47326">
        <ele>587</ele>
        <time>2020-05-21T14:30:47+02:00</time>
      </trkpt>
      <trkpt lat="46.11487" lon="4.4733">
        <ele>588</ele>
        <time>2020-05-21T14:30:59+02:00</time>
      </trkpt>
      <trkpt lat="46.11477" lon="4.47329">
        <ele>588</ele>
        <time>2020-05-21T14:31:13+02:00</time>
      </trkpt>
      <trkpt lat="46.11469" lon="4.47321">
        <ele>586</ele>
        <time>2020-05-21T14:31:24+02:00</time>
      </trkpt>
      <trkpt lat="46.1146" lon="4.47323">
        <ele>587</ele>
        <time>2020-05-21T14:31:33+02:00</time>
      </trkpt>
      <trkpt lat="46.1145" lon="4.4732">
        <ele>587</ele>
        <time>2020-05-21T14:31:41+02:00</time>
      </trkpt>
      <trkpt lat="46.11442" lon="4.47315">
        <ele>586</ele>
        <time>2020-05-21T14:31:51+02:00</time>
      </trkpt>
      <trkpt lat="46.11435" lon="4.47305">
        <ele>585</ele>
        <time>2020-05-21T14:32:10+02:00</time>
      </trkpt>
      <trkpt lat="46.11431" lon="4.47294">
        <ele>584</ele>
        <time>2020-05-21T14:32:20+02:00</time>
      </trkpt>
      <trkpt lat="46.11426" lon="4.47283">
        <ele>583</ele>
        <time>2020-05-21T14:32:29+02:00</time>
      </trkpt>
      <trkpt lat="46.11423" lon="4.4727">
        <ele>582</ele>
        <time>2020-05-21T14:32:38+02:00</time>
      </trkpt>
      <trkpt lat="46.11423" lon="4.47257">
        <ele>580</ele>
        <time>2020-05-21T14:32:48+02:00</time>
      </trkpt>
      <trkpt lat="46.11425" lon="4.47244">
        <ele>578</ele>
        <time>2020-05-21T14:33:00+02:00</time>
      </trkpt>
      <trkpt lat="46.11419" lon="4.47232">
        <ele>577</ele>
        <time>2020-05-21T14:33:10+02:00</time>
      </trkpt>
      <trkpt lat="46.1141" lon="4.47224">
        <ele>578</ele>
        <time>2020-05-21T14:33:18+02:00</time>
      </trkpt>
      <trkpt lat="46.11402" lon="4.47217">
        <ele>580</ele>
        <time>2020-05-21T14:33:26+02:00</time>
      </trkpt>
      <trkpt lat="46.11396" lon="4.47207">
        <ele>581</ele>
        <time>2020-05-21T14:33:35+02:00</time>
      </trkpt>
      <trkpt lat="46.1139" lon="4.47196">
        <ele>581</ele>
        <time>2020-05-21T14:33:45+02:00</time>
      </trkpt>
      <trkpt lat="46.11387" lon="4.47182">
        <ele>581</ele>
        <time>2020-05-21T14:33:54+02:00</time>
      </trkpt>
      <trkpt lat="46.11384" lon="4.47169">
        <ele>580</ele>
        <time>2020-05-21T14:34:04+02:00</time>
      </trkpt>
      <trkpt lat="46.11379" lon="4.47158">
        <ele>581</ele>
        <time>2020-05-21T14:34:12+02:00</time>
      </trkpt>
      <trkpt lat="46.11371" lon="4.4715">
        <ele>583</ele>
        <time>2020-05-21T14:34:21+02:00</time>
      </trkpt>
      <trkpt lat="46.11366" lon="4.47138">
        <ele>583</ele>
        <time>2020-05-21T14:34:33+02:00</time>
      </trkpt>
      <trkpt lat="46.11367" lon="4.47125">
        <ele>581</ele>
        <time>2020-05-21T14:34:43+02:00</time>
      </trkpt>
      <trkpt lat="46.11364" lon="4.47112">
        <ele>580</ele>
        <time>2020-05-21T14:34:54+02:00</time>
      </trkpt>
      <trkpt lat="46.11359" lon="4.47101">
        <ele>580</ele>
        <time>2020-05-21T14:35:06+02:00</time>
      </trkpt>
      <trkpt lat="46.1135" lon="4.47097">
        <ele>583</ele>
        <time>2020-05-21T14:35:21+02:00</time>
      </trkpt>
      <trkpt lat="46.11342" lon="4.47088">
        <ele>585</ele>
        <time>2020-05-21T14:36:30+02:00</time>
      </trkpt>
      <trkpt lat="46.11334" lon="4.4708">
        <ele>587</ele>
        <time>2020-05-21T14:36:44+02:00</time>
      </trkpt>
      <trkpt lat="46.11326" lon="4.47073">
        <ele>588</ele>
        <time>2020-05-21T14:36:53+02:00</time>
      </trkpt>
      <trkpt lat="46.11317" lon="4.47068">
        <ele>588</ele>
        <time>2020-05-21T14:37:04+02:00</time>
      </trkpt>
      <trkpt lat="46.11308" lon="4.47065">
        <ele>589</ele>
        <time>2020-05-21T14:37:13+02:00</time>
      </trkpt>
      <trkpt lat="46.11299" lon="4.4706">
        <ele>589</ele>
        <time>2020-05-21T14:37:22+02:00</time>
      </trkpt>
      <trkpt lat="46.1129" lon="4.47063">
        <ele>590</ele>
        <time>2020-05-21T14:37:33+02:00</time>
      </trkpt>
      <trkpt lat="46.1128" lon="4.47061">
        <ele>590</ele>
        <time>2020-05-21T14:37:42+02:00</time>
      </trkpt>
      <trkpt lat="46.11271" lon="4.47059">
        <ele>591</ele>
        <time>2020-05-21T14:37:52+02:00</time>
      </trkpt>
      <trkpt lat="46.11261" lon="4.4706">
        <ele>592</ele>
        <time>2020-05-21T14:38:03+02:00</time>
      </trkpt>
      <trkpt lat="46.11252" lon="4.47063">
        <ele>593</ele>
        <time>2020-05-21T14:38:12+02:00</time>
      </trkpt>
      <trkpt lat="46.11243" lon="4.47068">
        <ele>593</ele>
        <time>2020-05-21T14:38:21+02:00</time>
      </trkpt>
      <trkpt lat="46.11104" lon="4.47146">
        <ele>582</ele>
        <time>2021-05-22T09:39:57+02:00</time>
      </trkpt>
      <trkpt lat="46.10973" lon="4.47305">
        <ele>592</ele>
        <time>2020-05-21T14:39:41+02:00</time>
      </trkpt>
      <trkpt lat="46.10893" lon="4.47326">
        <ele>589</ele>
        <time>2020-05-21T14:39:44+02:00</time>
      </trkpt>
      <trkpt lat="46.10848" lon="4.47373">
        <ele>597</ele>
        <time>2020-05-21T14:39:51+02:00</time>
      </trkpt>
      <trkpt lat="46.10804" lon="4.47379">
        <ele>595</ele>
        <time>2021-05-22T09:40:17+02:00</time>
      </trkpt>
      <trkpt lat="46.10762" lon="4.47353">
        <ele>587</ele>
        <time>2020-05-21T14:49:41+02:00</time>
      </trkpt>
      <trkpt lat="46.10714" lon="4.47352">
        <ele>587</ele>
        <time>2020-05-21T14:49:42+02:00</time>
      </trkpt>
      <trkpt lat="46.10691" lon="4.47367">
        <ele>589</ele>
        <time>2020-05-21T14:49:43+02:00</time>
      </trkpt>
      <trkpt lat="46.10681" lon="4.47366">
        <ele>589</ele>
        <time>2020-05-21T14:50:07+02:00</time>
      </trkpt>
      <trkpt lat="46.10675" lon="4.47377">
        <ele>589</ele>
        <time>2020-05-21T14:50:21+02:00</time>
      </trkpt>
      <trkpt lat="46.10665" lon="4.47377">
        <ele>589</ele>
        <time>2020-05-21T14:50:27+02:00</time>
      </trkpt>
      <trkpt lat="46.10656" lon="4.47382">
        <ele>587</ele>
        <time>2020-05-21T14:50:36+02:00</time>
      </trkpt>
      <trkpt lat="46.10652" lon="4.47394">
        <ele>587</ele>
        <time>2020-05-21T14:50:49+02:00</time>
      </trkpt>
      <trkpt lat="46.10655" lon="4.47407">
        <ele>588</ele>
        <time>2020-05-21T14:50:58+02:00</time>
      </trkpt>
      <trkpt lat="46.10658" lon="4.4742">
        <ele>589</ele>
        <time>2020-05-21T14:51:07+02:00</time>
      </trkpt>
      <trkpt lat="46.10659" lon="4.47434">
        <ele>590</ele>
        <time>2020-05-21T14:51:20+02:00</time>
      </trkpt>
      <trkpt lat="46.10661" lon="4.47447">
        <ele>591</ele>
        <time>2020-05-21T14:51:30+02:00</time>
      </trkpt>
      <trkpt lat="46.1066" lon="4.4746">
        <ele>591</ele>
        <time>2020-05-21T14:51:45+02:00</time>
      </trkpt>
      <trkpt lat="46.10657" lon="4.47473">
        <ele>591</ele>
        <time>2020-05-21T14:51:55+02:00</time>
      </trkpt>
      <trkpt lat="46.10658" lon="4.47487">
        <ele>592</ele>
        <time>2020-05-21T14:52:03+02:00</time>
      </trkpt>
      <trkpt lat="46.10657" lon="4.475">
        <ele>592</ele>
        <time>2020-05-21T14:52:12+02:00</time>
      </trkpt>
      <trkpt lat="46.10656" lon="4.47514">
        <ele>593</ele>
        <time>2020-05-21T14:52:20+02:00</time>
      </trkpt>
      <trkpt lat="46.10655" lon="4.47528">
        <ele>594</ele>
        <time>2020-05-21T14:52:28+02:00</time>
      </trkpt>
      <trkpt lat="46.10654" lon="4.47542">
        <ele>595</ele>
        <time>2020-05-21T14:52:38+02:00</time>
      </trkpt>
      <trkpt lat="46.10651" lon="4.47554">
        <ele>595</ele>
        <time>2020-05-21T14:52:48+02:00</time>
      </trkpt>
      <trkpt lat="46.10646" lon="4.47565">
        <ele>595</ele>
        <time>2020-05-21T14:52:57+02:00</time>
      </trkpt>
      <trkpt lat="46.1064" lon="4.47576">
        <ele>595</ele>
        <time>2020-05-21T14:53:06+02:00</time>
      </trkpt>
      <trkpt lat="46.10633" lon="4.47585">
        <ele>594</ele>
        <time>2020-05-21T14:53:14+02:00</time>
      </trkpt>
      <trkpt lat="46.10631" lon="4.47598">
        <ele>595</ele>
        <time>2020-05-21T14:53:23+02:00</time>
      </trkpt>
      <trkpt lat="46.10624" lon="4.47607">
        <ele>594</ele>
        <time>2020-05-21T14:53:32+02:00</time>
      </trkpt>
      <trkpt lat="46.10622" lon="4.47621">
        <ele>595</ele>
        <time>2020-05-21T14:53:47+02:00</time>
      </trkpt>
      <trkpt lat="46.10616" lon="4.47632">
        <ele>595</ele>
        <time>2020-05-21T14:53:58+02:00</time>
      </trkpt>
      <trkpt lat="46.10608" lon="4.47639">
        <ele>595</ele>
        <time>2020-05-21T14:54:06+02:00</time>
      </trkpt>
      <trkpt lat="46.10602" lon="4.47649">
        <ele>595</ele>
        <time>2020-05-21T14:54:17+02:00</time>
      </trkpt>
      <trkpt lat="46.10595" lon="4.47658">
        <ele>594</ele>
        <time>2020-05-21T14:54:27+02:00</time>
      </trkpt>
      <trkpt lat="46.10589" lon="4.47668">
        <ele>594</ele>
        <time>2020-05-21T14:54:35+02:00</time>
      </trkpt>
      <trkpt lat="46.10583" lon="4.47679">
        <ele>594</ele>
        <time>2020-05-21T14:54:44+02:00</time>
      </trkpt>
      <trkpt lat="46.10577" lon="4.4769">
        <ele>593</ele>
        <time>2020-05-21T14:54:52+02:00</time>
      </trkpt>
      <trkpt lat="46.1057" lon="4.477">
        <ele>593</ele>
        <time>2020-05-21T14:55:01+02:00</time>
      </trkpt>
      <trkpt lat="46.10564" lon="4.47709">
        <ele>592</ele>
        <time>2020-05-21T14:55:09+02:00</time>
      </trkpt>
      <trkpt lat="46.10557" lon="4.47719">
        <ele>591</ele>
        <time>2020-05-21T14:55:18+02:00</time>
      </trkpt>
      <trkpt lat="46.10552" lon="4.4773">
        <ele>590</ele>
        <time>2020-05-21T14:55:28+02:00</time>
      </trkpt>
      <trkpt lat="46.10548" lon="4.47743">
        <ele>591</ele>
        <time>2020-05-21T14:55:43+02:00</time>
      </trkpt>
      <trkpt lat="46.10545" lon="4.47755">
        <ele>591</ele>
        <time>2020-05-21T14:55:52+02:00</time>
      </trkpt>
      <trkpt lat="46.10538" lon="4.47763">
        <ele>589</ele>
        <time>2020-05-21T14:56:01+02:00</time>
      </trkpt>
      <trkpt lat="46.10534" lon="4.47776">
        <ele>589</ele>
        <time>2020-05-21T14:56:10+02:00</time>
      </trkpt>
      <trkpt lat="46.10531" lon="4.47789">
        <ele>589</ele>
        <time>2020-05-21T14:56:23+02:00</time>
      </trkpt>
      <trkpt lat="46.10527" lon="4.47801">
        <ele>589</ele>
        <time>2020-05-21T14:56:33+02:00</time>
      </trkpt>
      <trkpt lat="46.10521" lon="4.47812">
        <ele>588</ele>
        <time>2020-05-21T14:56:43+02:00</time>
      </trkpt>
      <trkpt lat="46.10514" lon="4.47821">
        <ele>587</ele>
        <time>2020-05-21T14:56:53+02:00</time>
      </trkpt>
      <trkpt lat="46.10507" lon="4.4783">
        <ele>585</ele>
        <time>2020-05-21T14:57:03+02:00</time>
      </trkpt>
      <trkpt lat="46.10503" lon="4.47843">
        <ele>584</ele>
        <time>2020-05-21T14:57:13+02:00</time>
      </trkpt>
      <trkpt lat="46.10497" lon="4.47855">
        <ele>583</ele>
        <time>2020-05-21T14:57:23+02:00</time>
      </trkpt>
      <trkpt lat="46.10492" lon="4.47865">
        <ele>582</ele>
        <time>2020-05-21T14:57:33+02:00</time>
      </trkpt>
      <trkpt lat="46.10485" lon="4.47875">
        <ele>580</ele>
        <time>2020-05-21T14:57:47+02:00</time>
      </trkpt>
      <trkpt lat="46.10482" lon="4.47888">
        <ele>580</ele>
        <time>2020-05-21T14:57:57+02:00</time>
      </trkpt>
      <trkpt lat="46.10478" lon="4.479">
        <ele>579</ele>
        <time>2020-05-21T14:58:07+02:00</time>
      </trkpt>
      <trkpt lat="46.10477" lon="4.47914">
        <ele>580</ele>
        <time>2020-05-21T14:58:17+02:00</time>
      </trkpt>
      <trkpt lat="46.10477" lon="4.47927">
        <ele>580</ele>
        <time>2020-05-21T14:58:27+02:00</time>
      </trkpt>
      <trkpt lat="46.10473" lon="4.47939">
        <ele>578</ele>
        <time>2020-05-21T14:58:37+02:00</time>
      </trkpt>
      <trkpt lat="46.1047" lon="4.47944">
        <ele>577.4</ele>
      </trkpt>
      <trkpt lat="46.10463" lon="4.47971">
        <ele>575.4</ele>
      </trkpt>
      <trkpt lat="46.10458" lon="4.48017">
        <ele>573.3</ele>
      </trkpt>
      <trkpt lat="46.10453" lon="4.48029">
        <ele>571.8</ele>
      </trkpt>
      <trkpt lat="46.10404" lon="4.48047">
        <ele>564.3</ele>
      </trkpt>
      <trkpt lat="46.10357" lon="4.48063">
        <ele>566.4</ele>
      </trkpt>
      <trkpt lat="46.10316" lon="4.48063">
        <ele>569.1</ele>
      </trkpt>
      <trkpt lat="46.10254" lon="4.48069">
        <ele>575.7</ele>
      </trkpt>
      <trkpt lat="46.10217" lon="4.48099">
        <ele>579.4</ele>
      </trkpt>
      <trkpt lat="46.10191" lon="4.48125">
        <ele>581.9</ele>
      </trkpt>
      <trkpt lat="46.10094" lon="4.48176">
        <ele>584.5</ele>
      </trkpt>
      <trkpt lat="46.10043" lon="4.4822">
        <ele>583.4</ele>
      </trkpt>
      <trkpt lat="46.10004" lon="4.48246">
        <ele>583.1</ele>
      </trkpt>
      <trkpt lat="46.09958" lon="4.48273">
        <ele>584.6</ele>
      </trkpt>
      <trkpt lat="46.09951" lon="4.48278">
        <ele>585</ele>
      </trkpt>
      <trkpt lat="46.09896" lon="4.48311">
        <ele>585</ele>
      </trkpt>
      <trkpt lat="46.09837" lon="4.48362">
        <ele>581.2</ele>
      </trkpt>
      <trkpt lat="46.09764" lon="4.48437">
        <ele>579.2</ele>
      </trkpt>
      <trkpt lat="46.09716" lon="4.48459">
        <ele>575.2</ele>
      </trkpt>
      <trkpt lat="46.09636" lon="4.48473">
        <ele>570.5</ele>
      </trkpt>
      <trkpt lat="46.09612" lon="4.48475">
        <ele>570.9</ele>
      </trkpt>
      <trkpt lat="46.09593" lon="4.48476">
        <ele>571.2</ele>
      </trkpt>
      <trkpt lat="46.09576" lon="4.48488">
        <ele>571.7</ele>
      </trkpt>
      <trkpt lat="46.09566" lon="4.48494">
        <ele>572.3</ele>
      </trkpt>
      <trkpt lat="46.0956" lon="4.48552">
        <ele>568.6</ele>
      </trkpt>
      <trkpt lat="46.0956" lon="4.48604">
        <ele>564.3</ele>
      </trkpt>
      <trkpt lat="46.09565" lon="4.48648">
        <ele>559.5</ele>
      </trkpt>
      <trkpt lat="46.0957" lon="4.48672">
        <ele>556.5</ele>
      </trkpt>
      <trkpt lat="46.09579" lon="4.48691">
        <ele>554</ele>
      </trkpt>
      <trkpt lat="46.09605" lon="4.48735">
        <ele>548.8</ele>
      </trkpt>
      <trkpt lat="46.09614" lon="4.48744">
        <ele>547</ele>
      </trkpt>
      <trkpt lat="46.09618" lon="4.48749">
        <ele>546.1</ele>
      </trkpt>
      <trkpt lat="46.09625" lon="4.48764">
        <ele>543.9</ele>
      </trkpt>
      <trkpt lat="46.09639" lon="4.48791">
        <ele>539.5</ele>
      </trkpt>
      <trkpt lat="46.0965" lon="4.48817">
        <ele>534.9</ele>
      </trkpt>
      <trkpt lat="46.09657" lon="4.48851">
        <ele>531.4</ele>
      </trkpt>
      <trkpt lat="46.09745" lon="4.48988">
        <ele>512.6</ele>
      </trkpt>
      <trkpt lat="46.09758" lon="4.49026">
        <ele>508.4</ele>
      </trkpt>
      <trkpt lat="46.09764" lon="4.49131">
        <ele>494.8</ele>
      </trkpt>
      <trkpt lat="46.09774" lon="4.49163">
        <ele>488.9</ele>
      </trkpt>
      <trkpt lat="46.09837" lon="4.49178">
        <ele>481.1</ele>
      </trkpt>
      <trkpt lat="46.09833" lon="4.4925">
        <ele>474</ele>
      </trkpt>
      <trkpt lat="46.09862" lon="4.49284">
        <ele>470.3</ele>
      </trkpt>
      <trkpt lat="46.09916" lon="4.493">
        <ele>469.8</ele>
      </trkpt>
      <trkpt lat="46.09938" lon="4.49314">
        <ele>468.1</ele>
      </trkpt>
      <trkpt lat="46.09952" lon="4.49352">
        <ele>464.2</ele>
      </trkpt>
      <trkpt lat="46.09979" lon="4.49353">
        <ele>463.6</ele>
      </trkpt>
      <trkpt lat="46.10016" lon="4.49333">
        <ele>465.4</ele>
      </trkpt>
      <trkpt lat="46.10041" lon="4.49353">
        <ele>464.6</ele>
      </trkpt>
      <trkpt lat="46.10046" lon="4.49363">
        <ele>464</ele>
      </trkpt>
      <trkpt lat="46.10034" lon="4.49369">
        <ele>463.1</ele>
      </trkpt>
      <trkpt lat="46.10028" lon="4.49378">
        <ele>462.1</ele>
      </trkpt>
      <trkpt lat="46.10024" lon="4.49412">
        <ele>459.1</ele>
      </trkpt>
      <trkpt lat="46.10038" lon="4.49434">
        <ele>458.2</ele>
      </trkpt>
      <trkpt lat="46.10062" lon="4.49451">
        <ele>458.3</ele>
      </trkpt>
      <trkpt lat="46.10076" lon="4.49462">
        <ele>458.2</ele>
      </trkpt>
      <trkpt lat="46.10079" lon="4.49466">
        <ele>458</ele>
      </trkpt>
    </trkseg>
  </trk>
</gpx>